createdAt,value
2022-09-30T00:01:03.211Z,5.77
2022-09-30T00:02:24.543Z,6.03
2022-09-30T00:03:45.638Z,5.48
2022-09-30T00:05:07.318Z,6.17
2022-09-30T00:06:29.133Z,5.46
2022-09-30T00:07:50.305Z,5.96
2022-09-30T00:09:11.859Z,5.51
2022-09-30T00:10:35.798Z,5.19
2022-09-30T00:11:57.291Z,5.19
2022-09-30T00:13:18.255Z,5.09
2022-09-30T00:14:39.684Z,5.05
2022-09-30T00:16:01.311Z,6.10
2022-09-30T00:17:22.761Z,6.76
2022-09-30T00:18:44.096Z,7.53
2022-09-30T00:20:06.346Z,7.54
2022-09-30T00:21:28.297Z,6.47
2022-09-30T00:22:49.919Z,5.59
2022-09-30T00:24:11.456Z,4.76
2022-09-30T00:25:34.280Z,4.40
2022-09-30T00:28:16.456Z,4.49
2022-09-30T00:29:37.717Z,4.21
2022-09-30T00:32:11.095Z,4.46
2022-09-30T00:33:33.143Z,4.23
2022-09-30T00:34:54.490Z,4.48
2022-09-30T00:36:16.333Z,3.86
2022-09-30T00:37:37.575Z,4.29
2022-09-30T00:38:59.432Z,4.79
2022-09-30T00:40:21.356Z,4.66
2022-09-30T00:41:42.945Z,4.38
2022-09-30T00:43:19.398Z,4.42
2022-09-30T00:44:54.435Z,4.26
2022-09-30T00:46:33.336Z,4.34
2022-09-30T00:47:56.867Z,4.51
2022-09-30T00:49:20.027Z,4.21
2022-09-30T00:50:44.689Z,4.79
2022-09-30T00:52:05.990Z,4.98
2022-09-30T00:53:29.517Z,4.67
2022-09-30T00:54:50.492Z,5.31
2022-09-30T00:56:15.657Z,4.59
2022-09-30T00:57:36.874Z,4.92
2022-09-30T00:59:05.011Z,4.92
2022-09-30T01:00:26.339Z,5.43
2022-09-30T01:01:47.690Z,5.61
2022-09-30T01:03:08.804Z,5.62
2022-09-30T01:04:31.129Z,5.49
2022-09-30T01:05:52.103Z,4.87
2022-09-30T01:07:13.518Z,5.32
2022-09-30T01:08:35.819Z,5.19
2022-09-30T01:09:57.198Z,5.37
2022-09-30T01:11:18.460Z,4.90
2022-09-30T01:12:39.778Z,5.19
2022-09-30T01:14:12.940Z,4.48
2022-09-30T01:15:52.716Z,4.71
2022-09-30T01:17:20.513Z,5.59
2022-09-30T01:19:02.128Z,5.21
2022-09-30T01:22:19.451Z,5.06
2022-09-30T01:23:47.831Z,5.00
2022-09-30T01:25:13.054Z,5.69
2022-09-30T01:26:56.767Z,5.16
2022-09-30T01:28:33.488Z,5.33
2022-09-30T01:29:58.657Z,5.74
2022-09-30T01:33:09.995Z,5.05
2022-09-30T01:34:46.942Z,5.46
2022-09-30T01:36:15.255Z,4.93
2022-09-30T01:37:43.312Z,4.86
2022-09-30T01:40:43.420Z,4.89
2022-09-30T01:42:14.422Z,4.77
2022-09-30T01:43:39.720Z,4.88
2022-09-30T01:46:34.769Z,5.02
2022-09-30T01:49:31.129Z,5.27
2022-09-30T01:52:22.271Z,5.28
2022-09-30T01:53:51.141Z,4.99
2022-09-30T01:55:28.155Z,5.28
2022-09-30T01:56:55.087Z,4.96
2022-09-30T01:58:25.889Z,5.04
2022-09-30T02:01:05.563Z,5.09
2022-09-30T02:02:28.121Z,4.72
2022-09-30T02:05:18.854Z,4.62
2022-09-30T02:06:42.151Z,5.15
2022-09-30T02:08:06.083Z,4.53
2022-09-30T02:09:33.204Z,4.84
2022-09-30T02:11:00.994Z,4.30
2022-09-30T02:12:23.212Z,4.84
2022-09-30T02:14:16.978Z,4.57
2022-09-30T02:15:44.389Z,4.39
2022-09-30T02:17:18.316Z,4.55
2022-09-30T02:18:47.349Z,5.06
2022-09-30T02:20:11.644Z,4.54
2022-09-30T02:21:34.588Z,4.62
2022-09-30T02:24:11.259Z,3.52
2022-09-30T02:25:36.629Z,4.50
2022-09-30T02:26:57.983Z,4.17
2022-09-30T02:28:22.292Z,4.63
2022-09-30T02:29:46.946Z,4.38
2022-09-30T02:31:09.209Z,4.34
2022-09-30T02:32:32.524Z,4.58
2022-09-30T02:47:14.268Z,4.47
2022-09-30T02:48:39.766Z,3.96
2022-09-30T02:50:07.430Z,5.02
2022-09-30T02:51:41.031Z,4.64
2022-09-30T02:53:11.922Z,4.76
2022-09-30T02:54:45.518Z,4.80
2022-09-30T02:56:28.858Z,4.92
2022-09-30T02:58:08.534Z,4.87
2022-09-30T02:59:30.016Z,4.87
2022-09-30T03:00:51.711Z,4.48
2022-09-30T03:02:13.308Z,4.71
2022-09-30T03:03:40.369Z,4.74
2022-09-30T03:05:01.423Z,4.44
2022-09-30T03:06:22.949Z,4.52
2022-09-30T03:07:44.476Z,4.54
2022-09-30T03:09:06.479Z,5.22
2022-09-30T03:10:27.973Z,4.64
2022-09-30T03:11:49.200Z,4.53
2022-09-30T03:14:39.410Z,3.17
2022-09-30T03:16:31.439Z,4.37
2022-09-30T03:17:59.223Z,4.38
2022-09-30T03:19:59.371Z,4.71
2022-09-30T03:21:42.084Z,4.89
2022-09-30T03:23:13.632Z,4.97
2022-09-30T03:24:59.558Z,4.84
2022-09-30T03:26:24.980Z,5.06
2022-09-30T03:28:09.347Z,4.49
2022-09-30T03:29:50.683Z,4.89
2022-09-30T03:31:18.361Z,5.41
2022-09-30T03:33:07.281Z,5.45
2022-09-30T03:34:31.564Z,5.82
2022-09-30T03:36:16.194Z,6.22
2022-09-30T03:37:47.249Z,5.89
2022-09-30T03:40:49.576Z,5.20
2022-09-30T03:42:22.957Z,6.73
2022-09-30T03:43:49.226Z,6.89
2022-09-30T03:45:20.178Z,6.91
2022-09-30T03:47:55.476Z,7.63
2022-09-30T03:49:20.636Z,6.73
2022-09-30T03:50:42.106Z,6.79
2022-09-30T03:52:07.070Z,7.31
2022-09-30T03:53:28.465Z,7.40
2022-09-30T03:54:51.760Z,7.30
2022-09-30T03:56:13.317Z,7.57
2022-09-30T03:57:34.722Z,7.32
2022-09-30T03:58:56.122Z,6.93
2022-09-30T04:00:17.539Z,7.00
2022-09-30T04:01:39.077Z,6.91
2022-09-30T04:03:00.548Z,6.64
2022-09-30T04:04:21.710Z,6.29
2022-09-30T04:05:43.226Z,7.09
2022-09-30T04:07:04.598Z,5.99
2022-09-30T04:08:26.304Z,5.68
2022-09-30T04:09:48.273Z,5.25
2022-09-30T04:11:10.590Z,5.77
2022-09-30T04:12:31.753Z,5.70
2022-09-30T04:13:52.805Z,5.36
2022-09-30T04:15:14.553Z,5.47
2022-09-30T04:16:36.289Z,5.87
2022-09-30T04:17:58.108Z,5.85
2022-09-30T04:19:19.434Z,5.32
2022-09-30T04:20:43.291Z,5.51
2022-09-30T04:22:04.533Z,5.82
2022-09-30T04:23:26.244Z,5.77
2022-09-30T04:24:47.418Z,5.16
2022-09-30T04:26:11.146Z,5.89
2022-09-30T04:27:32.368Z,6.18
2022-09-30T04:28:53.350Z,6.22
2022-09-30T04:30:15.986Z,6.81
2022-09-30T04:31:37.606Z,7.19
2022-09-30T04:32:58.958Z,6.38
2022-09-30T04:34:20.262Z,6.70
2022-09-30T04:35:41.867Z,6.79
2022-09-30T04:37:05.358Z,7.10
2022-09-30T04:39:47.154Z,7.73
2022-09-30T04:41:14.265Z,7.48
2022-09-30T04:42:35.916Z,7.21
2022-09-30T04:43:57.034Z,7.78
2022-09-30T04:45:18.540Z,7.30
2022-09-30T04:46:39.639Z,7.95
2022-09-30T04:48:01.097Z,7.41
2022-09-30T04:49:22.457Z,8.92
2022-09-30T04:50:44.700Z,8.05
2022-09-30T04:52:07.078Z,8.45
2022-09-30T04:53:28.473Z,8.21
2022-09-30T04:54:49.694Z,8.38
2022-09-30T04:56:12.096Z,8.56
2022-09-30T04:57:33.571Z,7.89
2022-09-30T04:58:56.653Z,8.12
2022-09-30T05:01:28.222Z,5.58
2022-09-30T05:02:51.233Z,6.95
2022-09-30T05:04:12.408Z,7.24
2022-09-30T05:05:36.214Z,7.17
2022-09-30T05:06:59.588Z,6.93
2022-09-30T05:08:21.121Z,6.95
2022-09-30T05:09:42.221Z,5.93
2022-09-30T05:11:06.526Z,5.77
2022-09-30T05:12:28.237Z,5.67
2022-09-30T05:13:50.747Z,5.75
2022-09-30T05:15:12.195Z,5.24
2022-09-30T05:16:33.701Z,4.55
2022-09-30T05:17:55.273Z,4.61
2022-09-30T05:19:18.503Z,4.46
2022-09-30T05:20:42.967Z,4.84
2022-09-30T05:22:04.406Z,4.73
2022-09-30T05:23:28.162Z,4.93
2022-09-30T05:24:50.414Z,4.35
2022-09-30T05:26:12.706Z,4.26
2022-09-30T05:27:34.801Z,4.96
2022-09-30T05:28:57.275Z,4.81
2022-09-30T05:30:18.935Z,4.57
2022-09-30T05:31:40.357Z,5.57
2022-09-30T05:33:02.255Z,4.81
2022-09-30T05:34:23.894Z,4.61
2022-09-30T05:35:45.139Z,4.89
2022-09-30T05:37:07.706Z,4.97
2022-09-30T05:38:29.605Z,4.59
2022-09-30T05:39:52.612Z,4.94
2022-09-30T05:41:14.104Z,4.68
2022-09-30T05:42:35.409Z,5.88
2022-09-30T05:43:57.541Z,5.49
2022-09-30T05:45:18.828Z,5.48
2022-09-30T05:46:40.177Z,5.74
2022-09-30T05:48:01.738Z,5.49
2022-09-30T05:49:25.422Z,5.47
2022-09-30T05:50:46.393Z,5.27
2022-09-30T05:52:08.656Z,5.47
2022-09-30T05:53:30.876Z,5.47
2022-09-30T05:54:52.341Z,5.64
2022-09-30T05:56:14.107Z,5.46
2022-09-30T05:57:35.731Z,5.57
2022-09-30T05:59:07.235Z,6.13
2022-09-30T06:00:28.910Z,5.89
2022-09-30T06:01:53.455Z,5.93
2022-09-30T06:03:15.038Z,5.41
2022-09-30T06:04:36.495Z,5.02
2022-09-30T06:05:59.641Z,4.73
2022-09-30T06:07:21.542Z,5.32
2022-09-30T06:08:43.036Z,5.16
2022-09-30T06:10:05.517Z,5.30
2022-09-30T06:11:26.736Z,7.39
2022-09-30T06:12:47.905Z,8.66
2022-09-30T06:14:09.210Z,8.08
2022-09-30T06:15:31.788Z,7.98
2022-09-30T06:18:09.403Z,12.25
2022-09-30T06:20:51.943Z,7.43
2022-09-30T06:22:13.567Z,6.64
2022-09-30T06:23:35.000Z,6.67
2022-09-30T06:24:56.522Z,6.39
2022-09-30T06:26:19.641Z,5.82
2022-09-30T06:27:45.868Z,6.13
2022-09-30T06:29:07.469Z,6.37
2022-09-30T06:30:34.266Z,7.41
2022-09-30T06:31:53.225Z,6.79
2022-09-30T06:34:28.482Z,6.78
2022-09-30T06:35:50.180Z,11.20
2022-09-30T06:37:11.761Z,7.99
2022-09-30T06:38:33.785Z,7.76
2022-09-30T06:39:55.424Z,8.08
2022-09-30T06:41:18.710Z,8.93
2022-09-30T06:42:40.797Z,8.53
2022-09-30T06:44:11.709Z,8.44
2022-09-30T06:45:32.769Z,8.72
2022-09-30T06:46:53.934Z,8.97
2022-09-30T06:48:13.996Z,9.45
2022-09-30T06:49:47.406Z,11.35
2022-09-30T06:51:02.203Z,9.53
2022-09-30T06:52:23.425Z,9.39
2022-09-30T06:53:53.226Z,8.72
2022-09-30T06:55:13.397Z,9.52
2022-09-30T06:56:36.399Z,10.23
2022-09-30T06:57:57.977Z,10.95
2022-09-30T06:59:19.410Z,10.59
2022-09-30T07:00:41.901Z,10.47
2022-09-30T07:02:03.065Z,10.08
2022-09-30T07:03:25.593Z,9.36
2022-09-30T07:04:47.258Z,11.05
2022-09-30T07:06:10.233Z,13.02
2022-09-30T07:08:44.046Z,9.56
2022-09-30T07:11:27.898Z,8.72
2022-09-30T07:12:51.419Z,8.53
2022-09-30T07:14:13.136Z,8.80
2022-09-30T07:15:37.211Z,8.81
2022-09-30T07:16:58.443Z,8.39
2022-09-30T07:18:21.108Z,8.42
2022-09-30T07:19:42.324Z,8.67
2022-09-30T07:21:03.843Z,9.12
2022-09-30T07:22:25.597Z,8.29
2022-09-30T07:23:49.149Z,12.58
2022-09-30T07:25:10.590Z,12.22
2022-09-30T07:26:31.962Z,13.22
2022-09-30T07:27:53.278Z,10.46
2022-09-30T07:29:14.972Z,10.72
2022-09-30T07:30:37.349Z,9.97
2022-09-30T07:31:58.893Z,9.57
2022-09-30T07:33:22.394Z,13.90
2022-09-30T07:34:44.402Z,10.94
2022-09-30T07:37:28.653Z,9.42
2022-09-30T07:38:50.224Z,17.73
2022-09-30T07:40:11.601Z,10.81
2022-09-30T07:41:33.967Z,8.74
2022-09-30T07:42:55.178Z,9.56
2022-09-30T07:44:16.517Z,8.34
2022-09-30T07:45:37.990Z,9.30
2022-09-30T07:48:10.876Z,7.95
2022-09-30T07:49:32.932Z,9.17
2022-09-30T07:50:54.914Z,8.22
2022-09-30T07:52:16.345Z,15.36
2022-09-30T07:53:37.902Z,13.76
2022-09-30T07:54:59.386Z,10.62
2022-09-30T07:56:23.494Z,13.66
2022-09-30T07:57:45.187Z,11.82
2022-09-30T07:59:06.792Z,14.26
2022-09-30T08:00:43.767Z,13.42
2022-09-30T08:01:52.644Z,8.68
2022-09-30T08:03:14.657Z,8.17
2022-09-30T08:05:51.606Z,9.47
2022-09-30T08:07:13.923Z,9.76
2022-09-30T08:08:35.658Z,9.15
2022-09-30T08:09:59.086Z,9.58
2022-09-30T08:12:31.014Z,9.87
2022-09-30T08:13:54.189Z,9.53
2022-09-30T08:15:15.909Z,11.53
2022-09-30T08:16:38.095Z,30.27
2022-09-30T08:17:59.810Z,17.17
2022-09-30T08:19:23.318Z,14.34
2022-09-30T08:20:45.156Z,19.86
2022-09-30T08:22:06.937Z,12.57
2022-09-30T08:23:35.144Z,17.98
2022-09-30T08:24:57.034Z,11.21
2022-09-30T08:26:18.779Z,10.13
2022-09-30T08:27:40.366Z,8.88
2022-09-30T08:30:27.834Z,8.77
2022-09-30T08:31:49.285Z,16.09
2022-09-30T08:33:10.878Z,9.39
2022-09-30T08:34:32.819Z,8.28
2022-09-30T08:36:02.095Z,7.62
2022-09-30T08:37:24.498Z,7.13
2022-09-30T08:38:49.471Z,7.73
2022-09-30T08:40:22.433Z,8.04
2022-09-30T08:41:53.316Z,8.16
2022-09-30T08:44:40.812Z,9.40
2022-09-30T08:46:18.905Z,15.50
2022-09-30T08:48:04.535Z,11.50
2022-09-30T08:49:32.975Z,9.57
2022-09-30T08:51:19.976Z,10.92
2022-09-30T08:52:49.156Z,7.84
2022-09-30T08:54:16.135Z,6.57
2022-09-30T08:55:45.615Z,7.97
2022-09-30T08:57:09.089Z,7.27
2022-09-30T08:59:53.478Z,7.26
2022-09-30T09:01:34.588Z,6.91
2022-09-30T09:02:58.565Z,6.88
2022-09-30T09:04:20.932Z,8.26
2022-09-30T09:07:33.835Z,6.62
2022-09-30T09:09:16.642Z,8.45
2022-09-30T09:10:50.297Z,6.97
2022-09-30T09:12:33.806Z,9.54
2022-09-30T09:14:25.832Z,6.36
2022-09-30T09:15:57.360Z,8.63
2022-09-30T09:17:23.405Z,9.17
2022-09-30T09:19:17.859Z,10.50
2022-09-30T09:21:57.355Z,14.27
2022-09-30T09:23:21.700Z,14.22
2022-09-30T09:24:46.545Z,9.83
2022-09-30T09:26:11.065Z,14.69
2022-09-30T09:27:52.807Z,19.09
2022-09-30T09:30:50.247Z,7.59
2022-09-30T09:32:16.828Z,8.78
2022-09-30T09:33:40.524Z,14.17
2022-09-30T09:35:16.162Z,8.77
2022-09-30T09:36:46.718Z,6.34
2022-09-30T09:38:23.420Z,4.87
2022-09-30T09:40:19.990Z,7.18
2022-09-30T09:41:53.331Z,10.98
2022-09-30T09:44:53.556Z,7.82
2022-09-30T09:47:38.031Z,6.52
2022-09-30T09:49:21.787Z,4.89
2022-09-30T09:50:59.320Z,4.74
2022-09-30T09:53:52.889Z,5.35
2022-09-30T09:55:14.951Z,4.61
2022-09-30T09:56:36.874Z,5.82
2022-09-30T09:58:05.835Z,5.52
2022-09-30T09:59:27.826Z,5.83
2022-09-30T10:12:50.330Z,6.48
2022-09-30T10:15:35.385Z,4.32
2022-09-30T10:18:32.008Z,4.37
2022-09-30T10:19:55.143Z,8.42
2022-09-30T10:21:21.308Z,4.21
2022-09-30T10:22:44.017Z,5.19
2022-09-30T10:25:57.131Z,4.12
2022-09-30T10:28:48.299Z,4.79
2022-09-30T10:30:15.376Z,4.20
2022-09-30T10:31:41.173Z,4.20
2022-09-30T10:34:37.966Z,4.81
2022-09-30T10:36:17.925Z,5.50
2022-09-30T10:37:39.490Z,4.40
2022-09-30T10:39:06.789Z,4.43
2022-09-30T10:40:30.418Z,4.19
2022-09-30T10:41:54.014Z,4.48
2022-09-30T10:44:46.366Z,4.31
2022-09-30T10:46:25.347Z,4.73
2022-09-30T10:47:36.757Z,4.49
2022-09-30T10:48:56.108Z,4.55
2022-09-30T10:51:35.455Z,4.03
2022-09-30T10:53:05.712Z,4.62
2022-09-30T10:54:56.717Z,4.49
2022-09-30T10:56:38.526Z,4.04
2022-09-30T10:58:18.662Z,4.44
2022-09-30T10:59:40.183Z,4.42
2022-09-30T11:04:14.399Z,5.17
2022-09-30T11:06:53.231Z,6.38
2022-09-30T11:10:08.126Z,8.84
2022-09-30T11:11:36.284Z,6.54
2022-09-30T11:13:10.271Z,7.49
2022-09-30T11:14:50.260Z,7.89
2022-09-30T11:16:23.163Z,16.02
2022-09-30T11:17:50.999Z,11.09
2022-09-30T11:19:28.137Z,10.74
2022-09-30T11:20:58.970Z,8.08
2022-09-30T11:22:45.192Z,7.73
2022-09-30T11:24:15.937Z,7.22
2022-09-30T11:27:02.534Z,5.51
2022-09-30T11:28:33.499Z,5.16
2022-09-30T11:30:12.391Z,5.46
2022-09-30T11:31:44.055Z,7.22
2022-09-30T11:33:31.613Z,5.14
2022-09-30T11:35:05.687Z,5.69
2022-09-30T11:36:42.870Z,7.14
2022-09-30T11:38:18.311Z,9.17
2022-09-30T11:39:49.492Z,9.83
2022-09-30T11:42:48.331Z,11.14
2022-09-30T11:46:13.984Z,10.16
2022-09-30T11:47:58.946Z,7.03
2022-09-30T11:49:35.942Z,11.36
2022-09-30T11:51:16.052Z,8.88
2022-09-30T11:54:42.076Z,7.64
2022-09-30T11:56:08.662Z,6.82
2022-09-30T11:57:39.989Z,6.76
2022-09-30T11:59:05.201Z,6.16
2022-09-30T12:00:35.637Z,5.82
2022-09-30T12:02:01.082Z,6.64
2022-09-30T12:03:26.636Z,7.49
2022-09-30T12:04:48.311Z,6.28
2022-09-30T12:07:37.035Z,5.67
2022-09-30T12:09:09.092Z,5.74
2022-09-30T12:10:39.840Z,6.17
2022-09-30T12:13:23.290Z,6.39
2022-09-30T12:15:02.061Z,8.82
2022-09-30T12:16:26.117Z,5.75
2022-09-30T12:18:01.677Z,6.61
2022-09-30T12:19:28.726Z,5.82
2022-09-30T12:21:00.788Z,5.72
2022-09-30T12:25:23.521Z,5.19
2022-09-30T12:26:46.180Z,5.02
2022-09-30T12:28:46.609Z,5.99
2022-09-30T12:30:15.884Z,4.81
2022-09-30T12:32:08.329Z,5.16
2022-09-30T12:33:51.838Z,4.83
2022-09-30T12:37:10.767Z,6.37
2022-09-30T12:40:34.493Z,5.18
2022-09-30T12:42:15.191Z,5.75
2022-09-30T12:44:03.673Z,4.86
2022-09-30T12:45:40.356Z,6.14
2022-09-30T12:47:29.802Z,6.12
2022-09-30T18:05:58.898Z,4.18
2022-09-30T18:07:20.131Z,3.61
2022-09-30T18:08:41.094Z,3.97
2022-09-30T18:10:02.674Z,3.96
2022-09-30T18:11:25.025Z,6.00
2022-09-30T18:12:46.260Z,5.14
2022-09-30T18:14:09.724Z,4.91
2022-09-30T18:15:30.808Z,5.75
2022-09-30T18:16:52.440Z,8.84
2022-09-30T18:18:14.126Z,7.32
2022-09-30T18:19:35.626Z,5.10
2022-09-30T18:20:56.901Z,3.80
2022-09-30T18:22:20.013Z,3.96
2022-09-30T18:23:41.620Z,4.37
2022-09-30T18:25:03.594Z,4.50
2022-09-30T18:26:25.391Z,3.35
2022-09-30T18:27:47.487Z,4.57
2022-09-30T18:29:09.038Z,5.42
2022-09-30T18:30:30.564Z,4.74
2022-09-30T18:31:52.106Z,5.28
2022-09-30T18:33:13.308Z,5.13
2022-09-30T18:34:34.886Z,4.98
2022-09-30T18:36:01.348Z,4.61
2022-09-30T18:37:23.899Z,4.86
2022-09-30T18:38:45.066Z,6.39
2022-09-30T18:40:08.212Z,7.52
2022-09-30T18:41:30.382Z,6.79
2022-09-30T18:42:53.322Z,6.91
2022-09-30T18:44:14.677Z,6.19
2022-09-30T18:45:36.026Z,5.56
2022-09-30T18:47:00.130Z,4.83
2022-09-30T18:48:26.337Z,4.45
2022-09-30T18:49:47.555Z,4.69
2022-09-30T18:51:09.803Z,4.11
2022-09-30T18:52:30.754Z,3.87
2022-09-30T18:53:53.907Z,3.97
2022-09-30T18:55:15.052Z,4.01
2022-09-30T18:56:36.202Z,4.16
2022-09-30T18:57:57.137Z,4.09
2022-09-30T18:59:20.613Z,4.00
2022-09-30T19:01:51.507Z,4.13
2022-09-30T19:03:12.731Z,4.87
2022-09-30T19:04:34.582Z,5.67
2022-09-30T19:05:56.461Z,5.09
2022-09-30T19:08:32.164Z,4.93
2022-09-30T19:09:53.737Z,4.63
2022-09-30T19:11:15.797Z,5.00
2022-09-30T19:12:37.427Z,8.34
2022-09-30T19:13:58.300Z,5.66
2022-09-30T19:15:19.393Z,4.53
2022-09-30T19:16:40.531Z,4.03
2022-09-30T19:18:01.707Z,4.30
2022-09-30T19:19:22.582Z,4.07
2022-09-30T19:20:44.224Z,4.07
2022-09-30T19:22:05.383Z,3.53
2022-09-30T19:23:26.399Z,3.79
2022-09-30T19:24:47.315Z,3.66
2022-09-30T19:26:08.989Z,3.77
2022-09-30T19:27:30.171Z,3.75
2022-09-30T19:28:51.819Z,3.72
2022-09-30T19:31:25.596Z,4.11
2022-09-30T19:32:47.223Z,4.68
2022-09-30T19:34:08.541Z,4.21
2022-09-30T19:35:40.078Z,4.55
2022-09-30T19:36:53.111Z,3.98
2022-09-30T19:38:14.703Z,3.89
2022-09-30T19:39:44.570Z,4.05
2022-09-30T19:40:59.316Z,4.09
2022-09-30T19:42:20.795Z,3.97
2022-09-30T19:43:42.523Z,3.89
2022-09-30T19:45:06.878Z,4.11
2022-09-30T19:46:28.316Z,4.07
2022-09-30T19:47:49.805Z,3.99
2022-09-30T19:49:11.470Z,4.43
2022-09-30T19:50:32.441Z,4.21
2022-09-30T19:51:53.836Z,4.69
2022-09-30T19:53:27.641Z,4.54
2022-09-30T19:54:41.780Z,4.06
2022-09-30T19:57:24.138Z,3.02
2022-09-30T19:58:46.791Z,3.93
2022-09-30T20:01:23.042Z,4.63
2022-09-30T20:02:44.474Z,17.60
2022-09-30T20:04:06.049Z,7.97
2022-09-30T20:05:28.604Z,5.91
2022-09-30T20:06:49.744Z,4.88
2022-09-30T20:08:11.313Z,4.19
2022-09-30T20:09:32.430Z,5.06
2022-09-30T20:10:54.450Z,5.46
2022-09-30T20:12:16.287Z,4.27
2022-09-30T20:13:37.494Z,4.81
2022-09-30T20:14:58.695Z,4.50
2022-09-30T20:16:19.867Z,5.83
2022-09-30T20:17:41.308Z,6.70
2022-09-30T20:19:02.612Z,5.27
2022-09-30T20:20:24.135Z,4.49
2022-09-30T20:21:45.844Z,4.58
2022-09-30T20:23:06.864Z,4.47
2022-09-30T20:24:28.390Z,5.34
2022-09-30T20:25:49.774Z,6.05
2022-09-30T20:27:11.019Z,6.83
2022-09-30T20:28:32.829Z,6.16
2022-09-30T20:29:54.025Z,5.47
2022-09-30T20:31:15.569Z,5.42
2022-09-30T20:32:37.096Z,7.71
2022-09-30T20:35:08.440Z,8.26
2022-09-30T20:36:30.155Z,8.14
2022-09-30T20:37:51.305Z,6.99
2022-09-30T20:39:12.736Z,5.74
2022-09-30T20:40:33.834Z,4.73
2022-09-30T20:41:55.549Z,6.18
2022-09-30T20:43:16.968Z,7.26
2022-09-30T20:44:38.161Z,8.12
2022-09-30T20:46:00.524Z,6.06
2022-09-30T20:47:21.641Z,5.02
2022-09-30T20:48:43.343Z,5.16
2022-09-30T20:50:07.289Z,4.91
2022-09-30T20:51:29.220Z,6.12
2022-09-30T20:52:52.118Z,6.39
2022-09-30T20:54:13.144Z,6.96
2022-09-30T20:55:35.728Z,7.99
2022-09-30T20:57:10.165Z,8.12
2022-09-30T20:59:40.551Z,4.88
2022-09-30T21:01:06.750Z,5.14
2022-09-30T21:02:29.364Z,5.22
2022-09-30T21:03:52.058Z,6.31
2022-09-30T21:05:13.692Z,7.20
2022-09-30T21:06:35.097Z,6.02
2022-09-30T21:07:57.457Z,6.04
2022-09-30T21:09:18.922Z,4.81
2022-09-30T21:10:40.047Z,5.21
2022-09-30T21:12:01.381Z,5.36
2022-09-30T21:13:22.705Z,5.43
2022-09-30T21:14:43.617Z,4.72
2022-09-30T21:16:05.919Z,4.87
2022-09-30T21:17:26.926Z,4.60
2022-09-30T21:18:51.550Z,4.04
2022-09-30T21:20:13.073Z,5.04
2022-09-30T21:21:35.014Z,5.30
2022-09-30T21:22:57.321Z,5.17
2022-09-30T21:24:18.652Z,4.63
2022-09-30T21:25:40.116Z,4.53
2022-09-30T21:27:01.318Z,4.56
2022-09-30T21:28:22.954Z,4.24
2022-09-30T21:29:44.257Z,4.42
2022-09-30T21:31:06.433Z,4.37
2022-09-30T21:32:27.912Z,4.64
2022-09-30T21:35:01.532Z,5.43
2022-09-30T21:36:23.761Z,5.14
2022-09-30T21:37:47.440Z,5.70
2022-09-30T21:39:08.593Z,4.61
2022-09-30T21:40:30.122Z,5.17
2022-09-30T21:41:51.847Z,5.03
2022-09-30T21:43:12.787Z,5.43
2022-09-30T21:44:33.839Z,5.09
2022-09-30T21:45:59.317Z,5.64
2022-09-30T21:47:20.432Z,5.52
2022-09-30T21:48:41.898Z,4.76
2022-09-30T21:50:05.590Z,5.58
2022-09-30T21:51:26.700Z,5.36
2022-09-30T21:52:47.663Z,5.47
2022-09-30T21:54:08.939Z,5.11
2022-09-30T21:55:30.328Z,5.12
2022-09-30T21:56:51.604Z,5.12
2022-09-30T21:58:12.445Z,5.08
2022-09-30T21:59:33.511Z,5.26
2022-09-30T22:02:10.084Z,4.85
2022-09-30T22:03:32.617Z,4.95
2022-09-30T22:04:53.981Z,4.91
2022-09-30T22:06:15.679Z,5.13
2022-09-30T22:07:36.928Z,5.69
2022-09-30T22:08:58.240Z,5.23
2022-09-30T22:10:20.423Z,4.24
2022-09-30T22:11:42.099Z,5.25
2022-09-30T22:13:03.616Z,5.01
2022-09-30T22:14:24.782Z,4.84
2022-09-30T22:15:46.296Z,4.91
2022-09-30T22:17:07.623Z,4.64
2022-09-30T22:18:28.762Z,5.16
2022-09-30T22:19:49.813Z,5.01
2022-09-30T22:21:12.785Z,4.91
2022-09-30T22:22:33.738Z,6.88
2022-09-30T22:23:55.562Z,5.31
2022-09-30T22:25:17.398Z,4.94
2022-09-30T22:26:40.004Z,4.94
2022-09-30T22:29:22.467Z,4.85
2022-09-30T22:30:43.708Z,5.14
2022-09-30T22:32:05.227Z,4.85
2022-09-30T22:33:26.497Z,4.83
2022-09-30T22:35:57.123Z,4.65
2022-09-30T22:37:18.874Z,5.26
2022-09-30T22:38:40.484Z,4.93
2022-09-30T22:40:02.071Z,5.08
2022-09-30T22:41:23.435Z,4.91
2022-09-30T22:42:45.037Z,4.49
2022-09-30T22:44:06.407Z,4.79
2022-09-30T22:45:27.440Z,4.92
2022-09-30T22:46:48.922Z,4.79
2022-09-30T22:48:10.479Z,4.75
2022-09-30T22:49:31.503Z,4.73
2022-09-30T22:50:53.112Z,4.81
2022-09-30T22:52:14.214Z,4.42
2022-09-30T22:53:36.004Z,4.65
2022-09-30T22:54:57.551Z,4.73
2022-09-30T22:56:19.110Z,5.01
2022-09-30T22:57:41.117Z,5.28
2022-09-30T22:59:02.365Z,4.52
2022-09-30T23:00:23.936Z,4.32
2022-09-30T23:01:45.350Z,4.59
2022-09-30T23:03:06.638Z,4.23
2022-09-30T23:04:28.342Z,4.46
2022-09-30T23:05:50.010Z,4.53
2022-09-30T23:07:11.354Z,4.68
2022-09-30T23:08:32.496Z,4.57
2022-09-30T23:09:53.873Z,4.51
2022-09-30T23:11:16.169Z,4.41
2022-09-30T23:12:37.351Z,3.08
2022-09-30T23:13:59.263Z,4.65
2022-09-30T23:15:20.801Z,4.38
2022-09-30T23:16:42.437Z,3.91
2022-09-30T23:18:03.734Z,4.07
2022-09-30T23:19:25.293Z,3.83
2022-09-30T23:20:57.395Z,3.84
2022-09-30T23:22:18.944Z,4.04
2022-09-30T23:23:40.253Z,3.69
2022-09-30T23:25:01.930Z,3.47
2022-09-30T23:26:27.182Z,3.46
2022-09-30T23:27:48.186Z,3.59
2022-09-30T23:29:10.939Z,3.65
2022-09-30T23:30:32.106Z,3.65
2022-09-30T23:31:53.017Z,3.23
2022-09-30T23:34:27.034Z,3.36
2022-09-30T23:35:48.528Z,3.23
2022-09-30T23:37:09.849Z,3.56
2022-09-30T23:38:31.461Z,3.36
2022-09-30T23:39:53.048Z,3.23
2022-09-30T23:41:14.974Z,2.87
2022-09-30T23:42:36.614Z,2.87
2022-09-30T23:43:57.944Z,2.87
2022-09-30T23:45:20.700Z,3.31
2022-09-30T23:46:41.740Z,2.84
2022-09-30T23:48:03.472Z,2.62
2022-09-30T23:49:24.789Z,2.81
2022-09-30T23:50:46.092Z,2.84
2022-09-30T23:52:11.907Z,2.97
2022-09-30T23:53:31.796Z,3.39
2022-09-30T23:54:53.158Z,2.95
2022-09-30T23:56:16.489Z,2.99
2022-09-30T23:57:37.885Z,2.69
2022-09-30T23:58:59.657Z,3.06
